Time;durP1;ratioP1;P1;durP2;ratioP2;P2;SDS_P1;SDS_P2;PMS_P1;PMS_P2;Temp;Humidity;BMP_temperature;BMP_pressure;BME280_temperature;BME280_humidity;BME280_pressure;Samples;Min_cycle;Max_cycle;Signal;HPM_P1;HPM_P2
2023/06/07 00:00:23;;;;;;;10.70;7.30;;;;;;;18.78;35.47;101110.79;107841;1290;21992;-68
2023/06/07 00:02:49;;;;;;;10.50;7.80;;;;;;;18.77;35.54;101111.89;107899;1281;21989;-62
2023/06/07 00:05:14;;;;;;;7.10;6.30;;;;;;;18.78;35.38;101109.02;107809;1290;24053;-68
2023/06/07 00:07:41;;;;;;;10.60;7.80;;;;;;;18.78;35.53;101110.60;107825;1280;21992;-64
2023/06/07 00:10:08;;;;;;;6.20;4.20;;;;;;;18.77;35.53;101112.96;107938;1285;21990;-62
2023/06/07 00:12:34;;;;;;;8.80;7.80;;;;;;;18.79;35.48;101110.05;107879;1289;22049;-68
2023/06/07 00:15:00;;;;;;;11.80;8.50;;;;;;;18.79;35.51;101108.98;107875;1289;21998;-62
2023/06/07 00:17:27;;;;;;;7.30;6.20;;;;;;;18.77;35.42;101109.20;107825;1283;21992;-61
2023/06/07 00:19:56;;;;;;;7.40;5.70;;;;;;;18.79;35.50;101108.08;107852;1290;22030;-67
2023/06/07 00:22:21;;;;;;;11.60;6.20;;;;;;;18.80;35.50;101103.77;107879;1286;21998;-68
2023/06/07 00:24:50;;;;;;;7.00;5.70;;;;;;;18.81;35.53;101102.14;107816;1290;21999;-67
2023/06/07 00:27:15;;;;;;;7.70;5.50;;;;;;;18.82;35.68;101101.77;107859;1280;21997;-60
2023/06/07 00:29:41;;;;;;;9.90;8.00;;;;;;;18.81;35.62;101106.59;107831;1290;21986;-68
2023/06/07 00:32:07;;;;;;;5.00;4.10;;;;;;;18.79;35.68;101104.70;107843;1281;22004;-67
2023/06/07 00:34:32;;;;;;;7.40;6.20;;;;;;;18.78;35.76;101103.14;107844;1290;21995;-68
2023/06/07 00:36:58;;;;;;;8.60;7.10;;;;;;;18.73;35.78;101104.93;107832;1287;21980;-67
2023/06/07 00:39:24;;;;;;;5.80;4.50;;;;;;;18.70;35.78;101103.95;107848;1281;21995;-61
2023/06/07 00:41:51;;;;;;;10.10;6.10;;;;;;;18.68;35.90;101103.85;107841;1286;22011;-62
2023/06/07 00:44:17;;;;;;;8.70;6.90;;;;;;;18.66;35.98;101104.27;107839;1284;21994;-67
2023/06/07 00:46:43;;;;;;;12.10;4.10;;;;;;;18.65;35.96;101102.17;107826;1287;21994;-68
2023/06/07 00:49:10;;;;;;;8.60;7.70;;;;;;;18.64;36.13;101100.60;107831;1290;21999;-68
2023/06/07 00:51:36;;;;;;;6.00;4.60;;;;;;;18.63;36.41;101104.37;107933;1290;21995;-68
2023/06/07 00:54:03;;;;;;;5.70;5.10;;;;;;;18.64;36.50;101105.57;107644;1280;203714;-65
2023/06/07 00:56:28;;;;;;;5.00;3.40;;;;;;;18.62;36.53;101103.52;107840;1290;22055;-68
2023/06/07 00:58:54;;;;;;;6.50;5.10;;;;;;;18.58;36.48;101103.83;107852;1286;21989;-62
2023/06/07 01:01:19;;;;;;;5.80;3.00;;;;;;;18.54;36.49;101102.20;107881;1283;21989;-61
2023/06/07 01:03:45;;;;;;;6.50;3.60;;;;;;;18.52;36.65;101096.77;107825;1290;21992;-61
2023/06/07 01:06:13;;;;;;;3.30;2.10;;;;;;;18.47;36.81;101095.33;107801;1290;22028;-68
2023/06/07 01:08:39;;;;;;;5.60;4.00;;;;;;;18.44;36.94;101091.16;107856;1290;21992;-67
2023/06/07 01:11:05;;;;;;;6.80;4.40;;;;;;;18.38;36.96;101089.04;107852;1290;21994;-61
2023/06/07 01:13:30;;;;;;;8.10;5.00;;;;;;;18.26;36.88;101088.35;107846;1280;21997;-61
2023/06/07 01:15:56;;;;;;;8.00;3.60;;;;;;;18.17;36.94;101090.79;107747;1289;22000;-68
2023/06/07 01:18:25;;;;;;;8.80;6.00;;;;;;;18.11;37.04;101089.56;107759;1290;21983;-62
2023/06/07 01:20:54;;;;;;;7.20;4.00;;;;;;;18.08;37.21;101088.08;107795;1290;22000;-61
2023/06/07 01:23:31;;;;;;;6.70;3.20;;;;;;;18.04;37.34;101089.45;107856;1290;21998;-68
2023/06/07 01:25:58;;;;;;;3.90;2.30;;;;;;;18.01;37.44;101090.58;107893;1290;21985;-61
2023/06/07 01:28:28;;;;;;;2.90;1.70;;;;;;;18.03;37.69;101089.10;107937;1281;22002;-68
2023/06/07 01:30:54;;;;;;;4.40;2.10;;;;;;;18.05;37.69;101090.86;107796;1280;21989;-61
2023/06/07 01:33:20;;;;;;;5.30;3.00;;;;;;;18.01;37.73;101086.17;107857;1290;21995;-68
2023/06/07 01:35:47;;;;;;;4.80;1.70;;;;;;;17.96;37.82;101088.24;107886;1290;21995;-61
2023/06/07 01:38:13;;;;;;;10.00;2.00;;;;;;;17.93;37.73;101090.27;107902;1289;23056;-67
2023/06/07 01:40:40;;;;;;;6.30;1.70;;;;;;;17.92;37.94;101091.38;107870;1281;22000;-67
2023/06/07 01:43:05;;;;;;;3.90;2.10;;;;;;;17.89;37.92;101091.65;107924;1290;21997;-60
2023/06/07 01:45:31;;;;;;;3.80;2.30;;;;;;;17.83;37.90;101094.84;107814;1283;21990;-67
2023/06/07 01:47:57;;;;;;;5.00;3.10;;;;;;;17.77;37.96;101094.86;107811;1290;21989;-67
2023/06/07 01:50:22;;;;;;;5.00;2.60;;;;;;;17.73;37.88;101093.73;107785;1290;23838;-61
2023/06/07 01:52:48;;;;;;;6.80;2.30;;;;;;;17.70;38.02;101094.72;107845;1289;21996;-62
2023/06/07 01:55:14;;;;;;;5.60;3.00;;;;;;;17.72;38.24;101091.11;107851;1286;21992;-61
2023/06/07 01:57:46;;;;;;;3.70;1.70;;;;;;;17.72;38.19;101094.66;107885;1280;21990;-67
2023/06/07 02:00:28;;;;;;;4.50;2.30;;;;;;;17.71;38.32;101095.57;107822;1284;23058;-61
2023/06/07 02:03:19;;;;;;;3.50;1.90;;;;;;;17.64;38.25;101094.20;107837;1287;22003;-61
2023/06/07 02:05:48;;;;;;;5.10;2.30;;;;;;;17.61;38.28;101096.23;107844;1290;22572;-67
2023/06/07 02:08:42;;;;;;;2.90;1.90;;;;;;;17.54;38.47;101094.50;107837;1290;22008;-61
2023/06/07 02:11:08;;;;;;;5.70;2.10;;;;;;;17.46;38.57;101091.00;107846;1290;22011;-68
2023/06/07 02:13:37;;;;;;;3.60;2.20;;;;;;;17.35;38.65;101089.37;107889;1290;21955;-61
2023/06/07 02:16:06;;;;;;;4.20;1.70;;;;;;;17.29;38.84;101093.83;107862;1285;23112;-68
2023/06/07 02:18:40;;;;;;;5.40;2.50;;;;;;;17.26;38.90;101098.50;107854;1290;22030;-61
2023/06/07 02:21:09;;;;;;;4.20;1.80;;;;;;;17.17;38.93;101098.04;107799;1280;21994;-61
2023/06/07 02:23:36;;;;;;;6.50;2.70;;;;;;;17.05;39.09;101096.60;107895;1290;21992;-68
2023/06/07 02:26:04;;;;;;;4.50;1.90;;;;;;;17.03;38.95;101096.83;107797;1290;21990;-60
2023/06/07 02:28:30;;;;;;;5.50;1.90;;;;;;;17.00;39.05;101094.46;107888;1278;21990;-60
2023/06/07 02:30:57;;;;;;;4.20;1.90;;;;;;;17.03;39.29;101091.36;107868;1290;21992;-62
2023/06/07 02:33:26;;;;;;;5.00;1.90;;;;;;;16.94;39.54;101091.75;107907;1281;22045;-67
2023/06/07 02:35:52;;;;;;;4.40;1.70;;;;;;;16.94;39.56;101091.39;107891;1286;22135;-68
2023/06/07 02:38:17;;;;;;;10.50;2.10;;;;;;;17.00;39.63;101090.19;107813;1283;21992;-60
2023/06/07 02:40:43;;;;;;;8.30;2.10;;;;;;;17.08;39.78;101092.09;107839;1279;22000;-67
2023/06/07 02:43:09;;;;;;;7.50;2.20;;;;;;;17.18;39.82;101096.42;107816;1290;21994;-62
2023/06/07 02:45:35;;;;;;;6.00;1.70;;;;;;;17.27;39.79;101094.05;107846;1281;22419;-61
2023/06/07 02:48:01;;;;;;;19.00;2.60;;;;;;;17.35;39.80;101090.45;107834;1281;22027;-62
2023/06/07 02:50:26;;;;;;;11.20;2.30;;;;;;;17.45;39.78;101094.07;107824;1290;23647;-68
2023/06/07 02:52:52;;;;;;;10.40;2.50;;;;;;;17.67;39.60;101095.52;107853;1284;22005;-67
2023/06/07 02:55:18;;;;;;;8.40;2.60;;;;;;;17.80;39.46;101096.02;107861;1287;21990;-61
2023/06/07 02:57:44;;;;;;;8.60;2.80;;;;;;;17.90;39.52;101092.70;107865;1281;22013;-62
2023/06/07 03:00:13;;;;;;;4.70;2.60;;;;;;;17.91;39.79;101091.58;107882;1284;22020;-60
2023/06/07 03:02:40;;;;;;;10.30;2.30;;;;;;;17.89;40.01;101089.19;107858;1289;22004;-59
2023/06/07 03:05:06;;;;;;;10.30;2.90;;;;;;;17.94;40.07;101093.08;107863;1290;21995;-60
2023/06/07 03:07:35;;;;;;;7.80;2.40;;;;;;;18.01;39.99;101096.47;107890;1280;22006;-66
2023/06/07 03:10:02;;;;;;;12.60;2.60;;;;;;;18.07;40.01;101095.05;107877;1289;21987;-60
2023/06/07 03:12:28;;;;;;;9.10;2.50;;;;;;;18.12;40.09;101095.58;108015;1289;22106;-67
2023/06/07 03:14:54;;;;;;;12.40;3.10;;;;;;;18.18;40.02;101095.02;108038;1289;22001;-60
2023/06/07 03:17:20;;;;;;;7.40;2.30;;;;;;;18.39;39.83;101091.86;108036;1289;21978;-61
2023/06/07 03:19:45;;;;;;;10.50;3.30;;;;;;;18.51;39.80;101090.20;108041;1287;21994;-67
2023/06/07 03:22:11;;;;;;;9.80;3.60;;;;;;;18.60;39.80;101094.14;108074;1289;21989;-59
2023/06/07 03:24:37;;;;;;;7.50;3.60;;;;;;;18.70;39.78;101094.35;108015;1287;22006;-66
2023/06/07 03:27:06;;;;;;;14.40;6.00;;;;;;;18.79;39.79;101095.11;108033;1289;21990;-67
2023/06/07 03:29:32;;;;;;;10.00;3.40;;;;;;;18.87;39.84;101093.58;108090;1284;21995;-60
2023/06/07 03:31:57;;;;;;;6.80;3.50;;;;;;;18.96;39.84;101092.75;108018;1283;24321;-67
2023/06/07 03:34:23;;;;;;;8.70;3.20;;;;;;;19.06;39.75;101097.03;107987;1289;21994;-60
2023/06/07 03:36:49;;;;;;;5.80;3.30;;;;;;;19.12;39.90;101095.56;108042;1289;24333;-60
2023/06/07 03:39:14;;;;;;;5.90;3.70;;;;;;;19.26;39.86;101097.04;107978;1277;21986;-60
2023/06/07 03:41:40;;;;;;;10.50;7.80;;;;;;;19.50;39.56;101094.86;108021;1279;22332;-60
2023/06/07 03:44:06;;;;;;;8.00;6.20;;;;;;;19.57;39.79;101098.35;108036;1289;22000;-60
2023/06/07 03:46:31;;;;;;;9.40;5.20;;;;;;;19.76;39.71;101102.43;108006;1289;21987;-60
2023/06/07 03:48:57;;;;;;;12.20;9.80;;;;;;;19.82;40.10;101103.44;108018;1287;21997;-67
2023/06/07 03:51:23;;;;;;;11.30;9.70;;;;;;;19.93;40.17;101103.73;108079;1279;22014;-60
2023/06/07 03:53:48;;;;;;;10.00;7.70;;;;;;;20.07;40.27;101111.92;108019;1287;21992;-67
2023/06/07 03:56:14;;;;;;;18.10;14.70;;;;;;;20.22;40.29;101109.20;108027;1280;21994;-67
2023/06/07 03:58:40;;;;;;;17.50;10.20;;;;;;;20.35;40.21;101106.33;107841;1281;21987;-60
2023/06/07 04:01:05;;;;;;;14.20;8.10;;;;;;;20.47;40.32;101107.95;108004;1283;21990;-68
2023/06/07 04:03:31;;;;;;;19.50;13.20;;;;;;;20.66;40.28;101108.23;108029;1289;22054;-60
2023/06/07 04:05:57;;;;;;;16.60;8.10;;;;;;;20.83;40.32;101103.27;108017;1289;22003;-67
2023/06/07 04:08:23;;;;;;;35.50;27.80;;;;;;;20.96;40.58;101103.23;107998;1280;22029;-68
2023/06/07 04:10:49;;;;;;;27.90;24.90;;;;;;;21.29;40.15;101103.54;107986;1286;21992;-68
2023/06/07 04:13:16;;;;;;;36.40;28.00;;;;;;;21.50;39.93;101100.77;108105;1289;21993;-68
2023/06/07 04:15:45;;;;;;;31.80;28.50;;;;;;;21.71;39.88;101101.44;108012;1280;22029;-68
2023/06/07 04:18:10;;;;;;;33.30;29.80;;;;;;;21.89;39.72;101102.18;107915;1289;22061;-68
2023/06/07 04:20:39;;;;;;;39.60;32.30;;;;;;;22.07;39.79;101102.95;107961;1288;21992;-67
2023/06/07 04:23:05;;;;;;;37.70;34.00;;;;;;;22.35;39.49;101101.73;107855;1280;22000;-68
2023/06/07 04:25:34;;;;;;;32.30;29.10;;;;;;;22.61;39.31;101104.57;108047;1288;22006;-60
2023/06/07 04:28:00;;;;;;;44.70;40.30;;;;;;;22.87;39.10;101105.90;108047;1280;21994;-68
2023/06/07 04:30:34;;;;;;;42.20;37.60;;;;;;;23.11;38.87;101106.08;108075;1280;21992;-61
2023/06/07 04:33:08;;;;;;;49.10;44.00;;;;;;;23.34;38.67;101110.41;108043;1289;22000;-60
2023/06/07 04:35:41;;;;;;;50.50;45.20;;;;;;;23.59;38.38;101109.23;108013;1280;22015;-66
2023/06/07 04:38:20;;;;;;;67.10;60.00;;;;;;;23.85;38.19;101109.23;108040;1289;21987;-61
2023/06/07 04:40:49;;;;;;;68.20;59.90;;;;;;;24.10;37.87;101105.50;107989;1289;21986;-67
2023/06/07 04:43:18;;;;;;;75.00;66.90;;;;;;;24.33;37.62;101100.77;108068;1287;22014;-68
2023/06/07 04:45:46;;;;;;;91.70;79.30;;;;;;;24.54;37.27;101096.66;108043;1280;21992;-61
2023/06/07 04:48:13;;;;;;;99.00;87.90;;;;;;;24.75;37.04;101096.88;108055;1283;21986;-61
2023/06/07 04:50:41;;;;;;;123.70;106.80;;;;;;;24.94;36.85;101094.64;107816;1283;22004;-68
2023/06/07 04:53:10;;;;;;;146.10;120.80;;;;;;;25.12;36.53;101097.16;109093;1287;23646;-68
2023/06/07 04:55:37;;;;;;;164.90;141.00;;;;;;;25.31;36.20;101101.36;107822;1290;22001;-67
2023/06/07 04:58:04;;;;;;;166.00;146.90;;;;;;;25.49;35.98;101103.14;107823;1290;22006;-61
2023/06/07 05:00:30;;;;;;;180.20;161.50;;;;;;;25.65;35.83;101101.08;107863;1283;21992;-68
2023/06/07 05:02:57;;;;;;;207.70;177.90;;;;;;;25.83;35.61;101102.05;107844;1287;22036;-68
2023/06/07 05:05:23;;;;;;;204.10;180.20;;;;;;;26.01;35.44;101101.96;107811;1290;23736;-68
2023/06/07 05:07:49;;;;;;;225.60;201.90;;;;;;;26.17;35.18;101104.17;107847;1287;21994;-62
2023/06/07 05:10:18;;;;;;;243.50;216.80;;;;;;;26.29;34.90;101103.02;107871;1286;21993;-68
2023/06/07 05:12:45;;;;;;;277.90;244.50;;;;;;;26.42;34.83;101101.05;107916;1290;23718;-68
2023/06/07 05:15:11;;;;;;;282.40;247.50;;;;;;;26.53;34.57;101101.58;107974;1289;22010;-66
2023/06/07 05:17:38;;;;;;;287.30;247.20;;;;;;;26.65;34.40;101100.77;108011;1289;22000;-61
2023/06/07 05:20:10;;;;;;;324.80;279.80;;;;;;;26.78;34.26;101104.38;108032;1289;22002;-67
2023/06/07 05:22:38;;;;;;;305.60;267.00;;;;;;;26.91;34.16;101106.03;108003;1287;22849;-61
2023/06/07 05:25:04;;;;;;;326.20;289.70;;;;;;;27.05;34.11;101101.77;108540;1289;21989;-67
2023/06/07 05:27:30;;;;;;;349.30;304.20;;;;;;;27.14;33.77;101100.46;108084;1289;22048;-67
2023/06/07 05:29:56;;;;;;;338.40;297.70;;;;;;;27.25;33.90;101096.77;108077;1289;22028;-66
2023/06/07 05:32:21;;;;;;;330.70;292.70;;;;;;;27.45;34.09;101100.45;108057;1283;22002;-67
2023/06/07 05:34:48;;;;;;;354.80;300.30;;;;;;;27.67;33.98;101094.20;108080;1287;21996;-62
2023/06/07 05:37:14;;;;;;;352.10;306.70;;;;;;;27.89;33.68;101091.83;108003;1289;21995;-62
2023/06/07 05:39:45;;;;;;;369.80;312.60;;;;;;;28.10;33.68;101092.30;108026;1284;22026;-67
2023/06/07 05:42:12;;;;;;;372.50;316.50;;;;;;;28.29;33.69;101091.55;108614;1289;21996;-61
2023/06/07 05:44:37;;;;;;;403.10;354.30;;;;;;;28.52;33.56;101085.17;108047;1289;21994;-66
2023/06/07 05:47:03;;;;;;;410.40;359.50;;;;;;;28.74;33.50;101085.82;108026;1280;22021;-61
2023/06/07 05:49:31;;;;;;;440.20;391.60;;;;;;;29.01;33.18;101082.65;108061;1289;22000;-61
2023/06/07 05:51:57;;;;;;;465.80;415.00;;;;;;;29.30;33.00;101085.45;108088;1289;21992;-65
2023/06/07 05:54:23;;;;;;;461.00;410.10;;;;;;;29.57;32.73;101086.13;107792;1289;21998;-63
2023/06/07 05:56:49;;;;;;;524.50;469.50;;;;;;;29.85;32.36;101081.30;108042;1289;21987;-67
2023/06/07 05:59:15;;;;;;;516.10;461.60;;;;;;;30.10;32.14;101076.61;107816;1289;21997;-61
2023/06/07 06:01:41;;;;;;;549.60;491.80;;;;;;;30.28;31.82;101078.48;108063;1280;21997;-63
2023/06/07 06:04:06;;;;;;;582.90;522.40;;;;;;;30.48;31.72;101075.71;108069;1280;21977;-62
2023/06/07 06:06:33;;;;;;;585.40;523.80;;;;;;;30.68;31.59;101073.10;108073;1289;21991;-62
2023/06/07 06:08:59;;;;;;;608.10;547.30;;;;;;;30.83;31.34;101071.47;108087;1284;22028;-61
2023/06/07 06:11:25;;;;;;;628.30;564.70;;;;;;;30.98;31.12;101067.05;108014;1287;21980;-65
2023/06/07 06:13:51;;;;;;;652.20;587.30;;;;;;;31.13;31.03;101065.02;108072;1289;22003;-67
2023/06/07 06:16:16;;;;;;;668.80;602.00;;;;;;;31.26;30.90;101065.23;107822;1289;23715;-65
2023/06/07 06:18:42;;;;;;;698.00;628.40;;;;;;;31.37;30.82;101064.05;108085;1289;21989;-65
2023/06/07 06:21:08;;;;;;;708.80;637.60;;;;;;;31.48;30.44;101065.02;108122;1284;22456;-65
2023/06/07 06:23:35;;;;;;;750.50;675.00;;;;;;;31.61;30.36;101065.34;107929;1290;21985;-65
2023/06/07 06:26:01;;;;;;;772.90;697.60;;;;;;;31.76;30.16;101062.36;109059;1287;23766;-66
2023/06/07 06:28:28;;;;;;;768.10;691.20;;;;;;;31.88;30.04;101064.15;107871;1284;23647;-66
2023/06/07 06:30:54;;;;;;;750.20;674.90;;;;;;;32.03;30.00;101059.17;107872;1290;22003;-66
2023/06/07 06:33:20;;;;;;;800.10;720.40;;;;;;;32.23;29.90;101060.95;108389;1290;21992;-66
2023/06/07 06:35:47;;;;;;;822.70;739.90;;;;;;;32.37;29.48;101062.54;107948;1280;21962;-64
2023/06/07 06:38:13;;;;;;;838.70;755.50;;;;;;;32.55;29.40;101063.46;107931;1290;24343;-66
2023/06/07 06:40:39;;;;;;;883.60;794.70;;;;;;;32.74;29.03;101064.48;108153;1280;21995;-66
2023/06/07 06:43:06;;;;;;;867.20;781.30;;;;;;;32.96;28.92;101063.76;108100;1289;23857;-66
2023/06/07 06:45:31;;;;;;;882.60;794.70;;;;;;;33.19;28.75;101062.09;107883;1287;21978;-66
2023/06/07 06:47:58;;;;;;;871.50;785.10;;;;;;;33.45;28.73;101064.84;107928;1290;22000;-66
2023/06/07 06:50:24;;;;;;;912.50;820.60;;;;;;;33.74;28.80;101061.04;107849;1291;21995;-65
2023/06/07 06:52:50;;;;;;;972.60;871.80;;;;;;;34.04;28.10;101061.91;107842;1280;21994;-67
2023/06/07 06:55:16;;;;;;;967.60;870.40;;;;;;;34.18;26.99;101062.80;107875;1280;22000;-66
2023/06/07 06:57:42;;;;;;;954.30;854.50;;;;;;;34.30;27.38;101063.82;107890;1279;21995;-66
2023/06/07 07:00:09;;;;;;;970.10;868.60;;;;;;;34.52;27.48;101064.11;107856;1290;21988;-66
2023/06/07 07:02:35;;;;;;;981.80;879.50;;;;;;;34.78;27.53;101059.44;107816;1286;24052;-66
2023/06/07 07:05:03;;;;;;;1002.90;899.00;;;;;;;35.01;26.85;101060.13;107789;1286;22007;-65
2023/06/07 07:07:29;;;;;;;995.30;887.90;;;;;;;35.05;26.49;101056.63;107836;1286;21991;-64
2023/06/07 07:09:55;;;;;;;1007.10;898.40;;;;;;;35.13;26.62;101059.17;107828;1290;22001;-63
2023/06/07 07:12:21;;;;;;;1011.40;901.80;;;;;;;35.30;26.69;101059.77;107781;1291;22000;-64
2023/06/07 07:14:47;;;;;;;1029.60;919.20;;;;;;;35.48;26.30;101055.17;107818;1287;22459;-64
2023/06/07 07:17:13;;;;;;;1025.20;914.80;;;;;;;35.65;26.06;101055.09;107994;1287;21992;-65
2023/06/07 07:19:38;;;;;;;1024.70;913.00;;;;;;;35.81;25.94;101057.06;107953;1289;21997;-63
2023/06/07 07:22:05;;;;;;;1063.30;946.50;;;;;;;35.99;25.36;101061.69;107818;1290;21991;-65
2023/06/07 07:24:30;;;;;;;1067.80;934.00;;;;;;;36.04;25.12;101058.40;107825;1286;22013;-64
2023/06/07 07:26:56;;;;;;;1061.90;944.10;;;;;;;36.13;25.77;101058.06;107870;1290;21988;-64
2023/06/07 07:29:21;;;;;;;1061.20;936.60;;;;;;;36.35;25.60;101059.31;107883;1281;21998;-64
2023/06/07 07:31:47;;;;;;;1056.60;940.30;;;;;;;36.55;25.29;101058.26;107926;1281;21996;-64
2023/06/07 07:34:13;;;;;;;1064.30;941.90;;;;;;;36.74;25.25;101062.89;107887;1278;21995;-64
2023/06/07 07:36:38;;;;;;;1074.20;955.40;;;;;;;36.95;25.18;101061.02;107828;1290;22000;-63
2023/06/07 07:39:04;;;;;;;1114.60;947.80;;;;;;;37.10;24.44;101057.35;107892;1284;21999;-64
2023/06/07 07:41:33;;;;;;;1094.30;944.80;;;;;;;37.13;24.53;101057.33;107966;1284;23309;-63
2023/06/07 07:43:58;;;;;;;1142.90;960.00;;;;;;;37.20;24.34;101053.83;108002;1289;22002;-63
2023/06/07 07:46:24;;;;;;;1131.10;969.30;;;;;;;37.22;23.88;101057.29;107869;1284;23647;-62
2023/06/07 07:48:50;;;;;;;1144.30;972.30;;;;;;;37.21;23.90;101053.73;107878;1290;23638;-62
2023/06/07 07:51:16;;;;;;;1125.40;952.60;;;;;;;37.30;23.98;101051.90;107977;1286;21955;-62
2023/06/07 07:53:42;;;;;;;1136.50;976.90;;;;;;;37.42;23.98;101053.63;108038;1289;22052;-64
2023/06/07 07:56:08;;;;;;;1145.40;975.10;;;;;;;37.52;23.49;101053.62;108089;1284;22022;-61
2023/06/07 07:58:33;;;;;;;1149.50;975.00;;;;;;;37.66;23.79;101056.64;108060;1289;22012;-63
2023/06/07 08:00:59;;;;;;;1153.50;962.90;;;;;;;37.82;23.86;101052.54;108064;1284;21995;-63
2023/06/07 08:03:25;;;;;;;1163.60;964.10;;;;;;;38.00;23.70;101048.33;108093;1287;22472;-63
2023/06/07 08:05:50;;;;;;;1133.00;967.20;;;;;;;38.15;23.53;101048.80;108038;1280;23615;-64
2023/06/07 08:08:19;;;;;;;1176.90;972.80;;;;;;;38.31;23.13;101044.63;108038;1284;22000;-63
2023/06/07 08:10:46;;;;;;;1144.80;969.30;;;;;;;38.45;23.13;101043.22;108073;1289;23708;-63
2023/06/07 08:13:12;;;;;;;1189.40;985.70;;;;;;;38.56;22.97;101045.17;108088;1289;22180;-64
2023/06/07 08:15:38;;;;;;;1192.40;980.60;;;;;;;38.64;22.61;101043.09;108121;1287;21989;-64
2023/06/07 08:18:04;;;;;;;1175.20;976.30;;;;;;;38.69;22.89;101043.20;107848;1287;23635;-66
2023/06/07 08:20:30;;;;;;;1191.30;986.30;;;;;;;38.91;23.01;101036.00;108143;1289;22001;-64
2023/06/07 08:22:56;;;;;;;1213.10;986.40;;;;;;;39.18;22.83;101036.11;108058;1284;22052;-64
2023/06/07 08:25:21;;;;;;;1196.60;983.90;;;;;;;39.40;22.65;101034.82;107865;1290;22030;-64
2023/06/07 08:27:47;;;;;;;1203.50;983.60;;;;;;;39.56;22.41;101027.06;107907;1279;22025;-64
2023/06/07 08:30:14;;;;;;;1226.30;991.10;;;;;;;39.71;22.40;101033.03;107879;1290;22034;-63
2023/06/07 08:32:40;;;;;;;1186.30;984.80;;;;;;;39.96;22.27;101030.91;107829;1284;22030;-62
2023/06/07 08:35:07;;;;;;;1243.00;986.30;;;;;;;40.20;22.07;101029.69;108347;1290;21998;-63
2023/06/07 08:37:33;;;;;;;1241.30;995.10;;;;;;;40.35;21.58;101028.71;107850;1290;23128;-63
2023/06/07 08:39:59;;;;;;;1244.80;986.70;;;;;;;40.30;20.68;101032.79;107832;1290;22044;-63
2023/06/07 08:42:25;;;;;;;1264.70;999.90;;;;;;;40.05;20.29;101027.77;108082;1287;22955;-65
2023/06/07 08:44:51;;;;;;;1244.60;998.20;;;;;;;39.68;19.83;101026.39;108174;1289;21999;-65
2023/06/07 08:47:17;;;;;;;1270.00;998.40;;;;;;;39.05;18.84;101018.89;107977;1289;21958;-64
2023/06/07 08:49:43;;;;;;;1268.50;997.30;;;;;;;38.41;19.77;101030.59;108077;1277;21990;-64
2023/06/07 08:52:10;;;;;;;1235.40;994.80;;;;;;;38.35;20.52;101036.14;108057;1289;23656;-65
2023/06/07 08:54:38;;;;;;;1242.80;999.40;;;;;;;38.44;20.67;101038.00;108104;1284;22028;-64
2023/06/07 08:57:03;;;;;;;1241.40;987.90;;;;;;;38.63;20.59;101044.16;108079;1289;21992;-64
2023/06/07 08:59:29;;;;;;;1259.40;998.40;;;;;;;38.76;20.18;101047.63;107825;1280;21987;-64
2023/06/07 09:01:55;;;;;;;1267.50;988.70;;;;;;;38.71;20.14;101047.89;107851;1284;22037;-64
2023/06/07 09:04:20;;;;;;;1249.20;988.00;;;;;;;38.51;20.07;101039.71;108013;1289;22032;-64
2023/06/07 09:06:46;;;;;;;1246.10;991.80;;;;;;;38.34;20.15;101038.32;107753;1288;21961;-64
2023/06/07 09:09:11;;;;;;;1227.20;993.10;;;;;;;38.41;20.28;101036.92;108043;1288;21993;-65
2023/06/07 09:11:37;;;;;;;1221.50;992.70;;;;;;;38.65;20.26;101036.36;108081;1277;21995;-65
2023/06/07 09:14:03;;;;;;;1191.10;986.70;;;;;;;38.92;20.46;101033.77;108067;1280;22003;-65
2023/06/07 09:16:28;;;;;;;1238.00;996.70;;;;;;;39.25;20.35;101033.98;108073;1284;22022;-65
2023/06/07 09:18:54;;;;;;;1223.70;999.50;;;;;;;39.49;20.14;101037.03;108091;1283;22172;-67
2023/06/07 09:21:25;;;;;;;1251.30;997.50;;;;;;;39.72;19.89;101037.79;108146;1288;22173;-64
2023/06/07 09:23:51;;;;;;;1256.50;998.50;;;;;;;39.64;18.71;101041.01;108131;1289;23130;-65
2023/06/07 09:26:17;;;;;;;1285.40;999.30;;;;;;;39.39;19.37;101037.59;107834;1284;23783;-63
2023/06/07 09:28:45;;;;;;;1235.70;990.40;;;;;;;39.26;19.59;101035.90;108108;1284;22002;-65
2023/06/07 09:31:11;;;;;;;1230.20;998.90;;;;;;;39.38;19.80;101032.62;107890;1289;23062;-63
2023/06/07 09:33:37;;;;;;;1254.60;989.60;;;;;;;39.70;19.24;101034.39;108063;1284;22006;-64
2023/06/07 09:36:03;;;;;;;1278.00;995.80;;;;;;;39.92;19.18;101033.34;108089;1289;22002;-63
2023/06/07 09:38:28;;;;;;;1239.90;998.40;;;;;;;39.90;19.34;101028.75;108201;1284;21990;-63
2023/06/07 09:40:57;;;;;;;1279.30;996.60;;;;;;;40.00;18.72;101034.55;108148;1289;21995;-65
2023/06/07 09:43:23;;;;;;;1323.00;999.90;;;;;;;39.93;18.39;101031.27;108240;1289;21997;-65
2023/06/07 09:45:55;;;;;;;1291.50;997.10;;;;;;;39.58;18.37;101031.33;109039;1289;22149;-61
2023/06/07 09:48:20;;;;;;;1344.80;999.10;;;;;;;39.21;19.40;101032.27;108044;1280;21987;-65
2023/06/07 09:50:56;;;;;;;1322.50;998.90;;;;;;;39.31;18.65;101030.34;107734;1285;22200;-61
2023/06/07 09:53:22;;;;;;;1289.00;998.10;;;;;;;39.35;18.29;101028.02;108054;1288;22007;-60
2023/06/07 09:55:48;;;;;;;1346.60;999.90;;;;;;;39.16;17.82;101032.10;108108;1289;22010;-62
2023/06/07 09:58:22;;;;;;;1307.50;999.20;;;;;;;38.68;17.18;101038.54;108041;1279;23710;-65
2023/06/07 10:00:47;;;;;;;1280.60;999.00;;;;;;;38.20;18.19;101039.35;108104;1284;22030;-64
2023/06/07 10:03:13;;;;;;;1247.80;994.60;;;;;;;38.01;18.32;101035.21;108074;1280;22200;-64
2023/06/07 10:05:39;;;;;;;1256.70;990.90;;;;;;;37.91;18.53;101031.52;107825;1288;21992;-62
2023/06/07 10:08:05;;;;;;;1273.10;997.90;;;;;;;37.94;18.44;101032.01;107712;1289;21993;-64
2023/06/07 10:10:32;;;;;;;1252.50;996.90;;;;;;;38.18;18.88;101029.75;107831;1289;22035;-62
2023/06/07 10:12:58;;;;;;;1287.80;999.80;;;;;;;38.60;19.04;101029.95;107865;1289;21992;-63
2023/06/07 10:15:24;;;;;;;1226.30;995.90;;;;;;;38.97;18.37;101024.98;107899;1289;23769;-63
2023/06/07 10:18:02;;;;;;;1267.90;994.60;;;;;;;39.30;18.14;101017.98;107856;1289;21995;-63
2023/06/07 10:20:30;;;;;;;1250.70;997.70;;;;;;;39.58;18.22;101014.49;107876;1289;23812;-63
2023/06/07 10:23:07;;;;;;;1252.90;996.10;;;;;;;39.78;18.00;101009.59;107899;1284;22025;-64
2023/06/07 10:25:39;;;;;;;1278.00;997.60;;;;;;;39.91;17.71;101010.52;107867;1283;22100;-62
2023/06/07 10:28:13;;;;;;;1281.80;998.00;;;;;;;39.97;17.92;101010.06;107879;1287;22155;-63
2023/06/07 10:30:43;;;;;;;1259.90;998.00;;;;;;;40.01;17.93;101004.41;108135;1284;23053;-63
2023/06/07 10:33:09;;;;;;;1301.90;999.90;;;;;;;40.01;18.00;101002.39;107838;1286;24335;-63
2023/06/07 10:35:34;;;;;;;1288.30;995.20;;;;;;;40.10;18.15;101007.33;108102;1284;22104;-63
2023/06/07 10:38:00;;;;;;;1269.50;997.00;;;;;;;40.16;17.66;101007.80;107703;1284;21985;-64
2023/06/07 10:40:25;;;;;;;1285.10;999.90;;;;;;;40.04;17.83;101003.33;107871;1289;22002;-64
2023/06/07 10:42:51;;;;;;;1332.00;999.00;;;;;;;40.07;17.77;101002.22;107631;1286;21993;-64
2023/06/07 10:45:18;;;;;;;1309.90;999.20;;;;;;;39.99;17.25;101003.59;107848;1284;21999;-64
2023/06/07 10:47:44;;;;;;;1298.80;999.80;;;;;;;39.36;16.60;101003.65;107946;1289;22028;-63
2023/06/07 10:50:28;;;;;;;1280.40;999.90;;;;;;;38.68;17.10;101006.70;108088;1289;21986;-65
2023/06/07 10:52:55;;;;;;;1283.70;999.90;;;;;;;38.12;17.53;101011.23;108080;1284;21990;-65